Airfield :







YOU CAN JOIN US ON...

 
LOGIN :

Register | Disclaimer

   EN    FR    IT 

 









Legend :    VFR   Marginal VFR   IFR   Intensive IFR   Very Intensive IFR
Visi :
Ceiling :
>= 8 km
>= 3000ft
5 to 8 km
1000 to 3000 ft
1500m to 5 km
500 to 1000 ft
800 to 1500m
200 to 500 ft
< 800m
< 200 ft
Symbols :   Thunderstorms  Fog  Heavy snow  Heavy precipitations  Wind > 20 kt







- Airport Elevation : 534 ft
- IATA code : PQI


KPQI - Northern Maine Regional Arpt At Presque Isle

CURRENT METAR :
  • 260156Z AUTO 00000KT 10SM CLR 12/11 A3033 RMK AO2 SLP296 T01170106

EXPIRED METARs :
  • 260056Z AUTO 00000KT 10SM CLR 13/11 A3033 RMK AO2 SLP296 T01330106
  • 252356Z AUTO 00000KT 10SM CLR 16/11 A3032 RMK AO2 SLP292 T01610111 10244 20161 55000

TAF KPQI
Valid from the 26 at 00:00 until the 27 at 00:00 UTC


252320Z 2600/2624 VRB02KT P6SM SKC
FM260700 VRB02KT 2SM BR SKC
FM261030 VRB02KT P6SM FEW250
FM261500 02003KT P6SM FEW045 SCT250
FM261800 06003KT P6SM SCT070 BKN220
FM262230 19003KT P6SM BKN120 OVC200
No reported NOTAMs for that airfield.



MET'MAP, your aeronautical weather chart ! - Copyright ORBIFLY December 2007 - Disclaimer

ORBIFLY MET'MAP TEAM :

Programming & Development : Alexandra Zaïnal
Concept & Development : Baudouin d'Aumeries
Co-Development & Prog : Marc-Olivier Méhu
Technical & hardware support : Manuel Goepfert

Contact : metmap@orbifly.com




SOURCES & CREDITS :

   NOAA